Disclaimer

Please do not use the information listed here in-flight or in-navigation, as they are not provided to us by the airports but are provided by volunteers, so they might be outdated.

Search


Regions


Airport information page

Radio informations:
Common traffic adv. frequency (CTAF) - 122.8 MHz

Airport informations:
Latitude: 51° 31' 03.00" N
Longitude: 109° 10' 51.00" W
Elevation: 2277 feet - 694 meters
Operating hours: N/A
Operating agency: Municipal
Timezone: N/A
Fuel: 100/130 MIL Spec, low lead, aviation gasoline (BLUE)

Runway information:
07/25 - 3507 x 75 feet< - >1069 x 23 meters
17/35 - 2281 x 100 feet< - >695 x 30 meters

Recent METARs:
CYKY 181700Z 20019KT 4SM -SN OVC040 M06/M08 A2985 RMK SC8 SLP155
CYKY 181700Z 20019KT 4SM -SN OVC040 M06/M08 A2985 RMK SC8 SLP155
CYKY 181800Z 20017KT 3SM -SN OVC030 M05/M07 A2986 RMK SC8 SLP158

Airport on the map: